createdAt,value
2018-09-19T00:00:17.202Z,90.70
2018-09-19T00:02:49.617Z,90.60
2018-09-19T00:05:22.041Z,90.70
2018-09-19T00:07:54.430Z,90.90
2018-09-19T00:10:27.200Z,91.40
2018-09-19T00:12:59.581Z,91.00
2018-09-19T00:15:33.135Z,91.00
2018-09-19T00:18:05.594Z,91.40
2018-09-19T00:20:38.046Z,91.60
2018-09-19T00:23:10.433Z,91.30
2018-09-19T00:25:42.864Z,91.40
2018-09-19T00:28:15.264Z,91.60
2018-09-19T00:30:48.071Z,91.70
2018-09-19T00:33:20.476Z,91.90
2018-09-19T00:35:52.978Z,91.90
2018-09-19T00:38:25.378Z,91.90
2018-09-19T00:40:57.809Z,91.70
2018-09-19T00:43:30.228Z,91.90
2018-09-19T00:46:02.597Z,91.80
2018-09-19T00:48:35.039Z,91.90
2018-09-19T00:51:07.514Z,91.10
2018-09-19T00:53:39.887Z,91.00
2018-09-19T00:56:12.313Z,90.80
2018-09-19T00:58:44.683Z,90.90
2018-09-19T01:01:17.062Z,91.10
2018-09-19T01:03:49.963Z,91.00
2018-09-19T01:06:22.327Z,91.10
2018-09-19T01:08:54.892Z,91.30
2018-09-19T01:11:27.272Z,91.20
2018-09-19T01:13:59.655Z,91.10
2018-09-19T01:16:32.116Z,91.10
2018-09-19T01:19:04.584Z,91.20
2018-09-19T01:21:36.995Z,91.20
2018-09-19T01:24:09.800Z,91.20
2018-09-19T01:26:42.200Z,91.20
2018-09-19T01:29:14.688Z,91.40
2018-09-19T01:31:47.110Z,91.40
2018-09-19T01:34:19.535Z,91.60
2018-09-19T01:36:51.990Z,91.80
2018-09-19T01:39:24.386Z,92.00
2018-09-19T01:41:56.936Z,92.30
2018-09-19T01:44:29.305Z,92.50
2018-09-19T01:47:02.002Z,92.90
2018-09-19T01:49:34.478Z,93.00
2018-09-19T01:52:06.854Z,93.20
2018-09-19T01:54:39.266Z,93.40
2018-09-19T01:57:11.793Z,93.60
2018-09-19T01:59:44.236Z,93.80
2018-09-19T02:02:16.638Z,94.10
2018-09-19T02:04:49.044Z,94.30
2018-09-19T02:07:21.487Z,94.60
2018-09-19T02:09:53.876Z,94.70
2018-09-19T02:12:26.306Z,94.90
2018-09-19T02:14:58.723Z,95.10
2018-09-19T02:17:31.181Z,95.20
2018-09-19T02:20:03.631Z,95.30
2018-09-19T02:22:35.982Z,95.50
2018-09-19T02:25:08.433Z,95.70
2018-09-19T02:27:40.843Z,95.90
2018-09-19T02:30:13.229Z,96.20
2018-09-19T02:32:45.625Z,96.30
2018-09-19T02:35:18.007Z,96.30
2018-09-19T02:37:51.556Z,96.50
2018-09-19T02:40:23.943Z,96.70
2018-09-19T02:42:56.347Z,96.80
2018-09-19T02:45:28.753Z,97.10
2018-09-19T02:48:01.104Z,97.20
2018-09-19T02:50:33.500Z,97.50
2018-09-19T02:53:06.189Z,97.40
2018-09-19T02:55:38.595Z,97.50
2018-09-19T02:58:10.967Z,97.70
2018-09-19T03:00:43.632Z,97.90
2018-09-19T03:03:16.165Z,97.80
2018-09-19T03:05:48.584Z,98.00
2018-09-19T03:08:20.968Z,98.00
2018-09-19T03:10:53.428Z,98.40
2018-09-19T03:13:26.221Z,98.30
2018-09-19T03:15:58.637Z,98.50
2018-09-19T03:18:31.253Z,98.50
2018-09-19T03:21:03.684Z,98.70
2018-09-19T03:23:36.125Z,98.90
2018-09-19T03:26:08.570Z,98.90
2018-09-19T03:28:40.982Z,99.00
2018-09-19T03:31:13.616Z,99.10
2018-09-19T03:33:47.775Z,99.20
2018-09-19T03:36:20.173Z,99.10
2018-09-19T03:38:53.922Z,99.30
2018-09-19T03:41:26.662Z,99.40
2018-09-19T03:43:59.015Z,99.80
2018-09-19T03:46:31.427Z,99.90
2018-09-19T03:49:03.962Z,99.90
2018-09-19T03:51:36.906Z,99.90
2018-09-19T03:54:09.444Z,99.90
2018-09-19T03:56:42.040Z,99.90
2018-09-19T03:59:14.468Z,99.90
2018-09-19T04:01:46.955Z,99.90
2018-09-19T04:04:19.358Z,99.90
2018-09-19T04:06:51.771Z,99.90
2018-09-19T04:09:24.173Z,99.90
2018-09-19T04:11:56.636Z,99.90
2018-09-19T04:14:29.165Z,99.90
2018-09-19T04:17:01.575Z,99.90
2018-09-19T04:19:34.093Z,99.90
2018-09-19T04:22:06.545Z,99.90
2018-09-19T04:24:39.289Z,99.90
2018-09-19T04:27:11.707Z,99.90
2018-09-19T04:29:44.084Z,99.90
2018-09-19T04:32:16.518Z,99.90
2018-09-19T04:34:48.932Z,99.90
2018-09-19T04:37:21.511Z,99.90
2018-09-19T04:39:53.949Z,99.90
2018-09-19T04:42:26.406Z,99.90
2018-09-19T04:44:58.828Z,99.90
2018-09-19T04:47:31.253Z,99.90
2018-09-19T04:50:03.691Z,99.90
2018-09-19T04:52:36.149Z,99.90
2018-09-19T04:55:08.550Z,99.90
2018-09-19T04:57:40.948Z,99.90
2018-09-19T05:00:13.450Z,99.90
2018-09-19T05:02:45.847Z,99.90
2018-09-19T05:05:18.262Z,99.90
2018-09-19T05:07:50.734Z,99.90
2018-09-19T05:10:23.127Z,99.90
2018-09-19T05:12:55.715Z,99.90
2018-09-19T05:15:28.131Z,99.90
2018-09-19T05:18:00.537Z,99.90
2018-09-19T05:20:33.054Z,99.90
2018-09-19T05:23:05.902Z,99.90
2018-09-19T05:25:38.282Z,99.90
2018-09-19T05:28:10.642Z,99.90
2018-09-19T05:30:43.326Z,99.90
2018-09-19T05:33:15.964Z,99.90
2018-09-19T05:35:48.352Z,99.90
2018-09-19T05:38:20.809Z,99.90
2018-09-19T05:40:55.103Z,99.90
2018-09-19T05:43:27.522Z,99.90
2018-09-19T05:45:59.965Z,99.90
2018-09-19T05:48:32.434Z,99.90
2018-09-19T05:51:04.897Z,99.90
2018-09-19T05:56:10.234Z,99.90
2018-09-19T05:58:42.645Z,99.90
2018-09-19T06:01:15.103Z,99.90
2018-09-19T06:03:47.507Z,99.90
2018-09-19T06:06:19.925Z,99.90
2018-09-19T06:08:52.319Z,99.90
2018-09-19T06:11:24.719Z,99.90
2018-09-19T06:13:57.118Z,99.90
2018-09-19T06:16:29.688Z,99.90
2018-09-19T06:19:02.127Z,99.90
2018-09-19T06:21:34.946Z,99.90
2018-09-19T06:24:07.436Z,99.90
2018-09-19T06:26:39.890Z,99.90
2018-09-19T06:29:12.424Z,99.80
2018-09-19T06:31:45.283Z,99.80
2018-09-19T06:34:17.674Z,99.80
2018-09-19T06:36:50.343Z,99.40
2018-09-19T06:39:23.124Z,99.70
2018-09-19T06:41:56.090Z,99.80
2018-09-19T06:44:29.261Z,99.60
2018-09-19T06:47:01.776Z,99.50
2018-09-19T06:49:34.106Z,99.50
2018-09-19T06:52:06.581Z,99.50
2018-09-19T06:54:38.989Z,99.50
2018-09-19T06:57:11.420Z,99.40
2018-09-19T07:02:16.371Z,98.90
2018-09-19T07:04:48.865Z,99.30
2018-09-19T07:07:21.379Z,99.40
2018-09-19T07:09:53.775Z,98.80
2018-09-19T07:12:26.274Z,98.70
2018-09-19T07:14:58.736Z,98.80
2018-09-19T07:17:31.132Z,98.80
2018-09-19T07:20:03.680Z,98.80
2018-09-19T07:22:36.168Z,98.60
2018-09-19T07:25:08.826Z,98.40
2018-09-19T07:27:41.194Z,98.50
2018-09-19T07:30:13.658Z,98.30
2018-09-19T07:32:46.077Z,98.40
2018-09-19T07:35:18.717Z,98.40
2018-09-19T07:37:51.217Z,98.20
2018-09-19T07:40:23.592Z,98.00
2018-09-19T07:42:56.123Z,98.00
2018-09-19T07:45:28.513Z,98.10
2018-09-19T07:48:01.297Z,98.10
2018-09-19T07:50:33.723Z,98.10
2018-09-19T07:53:06.135Z,98.00
2018-09-19T07:55:38.532Z,98.00
2018-09-19T07:58:10.937Z,97.80
2018-09-19T08:00:43.348Z,97.70
2018-09-19T08:03:15.936Z,97.70
2018-09-19T08:05:48.424Z,97.70
2018-09-19T08:08:21.435Z,97.60
2018-09-19T08:10:53.997Z,97.50
2018-09-19T08:13:27.069Z,97.80
2018-09-19T08:15:59.913Z,97.40
2018-09-19T08:18:32.420Z,97.20
2018-09-19T08:21:05.416Z,97.30
2018-09-19T08:26:11.267Z,96.90
2018-09-19T08:28:43.677Z,96.80
2018-09-19T08:31:16.131Z,97.00
2018-09-19T08:33:48.523Z,96.70
2018-09-19T08:36:20.931Z,96.70
2018-09-19T08:38:53.701Z,96.60
2018-09-19T08:41:26.122Z,96.40
2018-09-19T08:43:58.573Z,96.20
2018-09-19T08:46:30.981Z,96.10
2018-09-19T08:49:03.663Z,96.30
2018-09-19T08:51:36.134Z,96.10
2018-09-19T08:54:08.697Z,95.80
2018-09-19T08:56:41.051Z,95.90
2018-09-19T08:59:13.510Z,95.70
2018-09-19T09:01:45.935Z,95.10
2018-09-19T09:04:18.483Z,95.10
2018-09-19T09:06:50.898Z,95.10
2018-09-19T09:09:23.318Z,95.10
2018-09-19T09:11:55.801Z,95.10
2018-09-19T09:14:28.396Z,95.20
2018-09-19T09:17:00.854Z,95.10
2018-09-19T09:19:33.323Z,95.10
2018-09-19T09:22:05.769Z,94.70
2018-09-19T09:24:38.293Z,94.90
2018-09-19T09:27:10.818Z,95.00
2018-09-19T09:29:43.367Z,95.00
2018-09-19T09:34:48.502Z,95.00
2018-09-19T09:37:20.993Z,95.00
2018-09-19T09:39:53.406Z,94.50
2018-09-19T09:42:25.791Z,94.00
2018-09-19T09:44:58.210Z,93.70
2018-09-19T09:47:30.635Z,93.70
2018-09-19T09:50:03.065Z,93.60
2018-09-19T09:52:35.434Z,93.70
2018-09-19T09:55:07.899Z,93.60
2018-09-19T09:57:41.144Z,93.60
2018-09-19T10:00:18.308Z,93.50
2018-09-19T10:02:50.755Z,93.30
2018-09-19T10:05:23.279Z,93.30
2018-09-19T10:07:55.842Z,93.30
2018-09-19T10:10:28.245Z,93.00
2018-09-19T10:13:00.665Z,93.20
2018-09-19T10:15:33.104Z,93.40
2018-09-19T10:18:05.491Z,93.10
2018-09-19T10:20:37.957Z,92.90
2018-09-19T10:23:10.341Z,92.90
2018-09-19T10:25:42.774Z,92.80
2018-09-19T10:28:15.154Z,92.70
2018-09-19T10:30:47.546Z,92.70
2018-09-19T10:33:19.898Z,92.80
2018-09-19T10:35:52.519Z,92.80
2018-09-19T10:38:24.947Z,92.50
2018-09-19T10:40:57.709Z,92.40
2018-09-19T10:43:30.075Z,92.50
2018-09-19T10:46:02.675Z,92.40
2018-09-19T10:48:35.094Z,92.20
2018-09-19T10:51:07.539Z,92.00
2018-09-19T10:53:40.004Z,91.80
2018-09-19T10:56:12.608Z,91.70
2018-09-19T10:58:45.242Z,91.50
2018-09-19T11:01:17.695Z,91.40
2018-09-19T11:03:50.094Z,91.50
2018-09-19T11:06:22.718Z,91.40
2018-09-19T11:08:55.189Z,91.50
2018-09-19T11:11:27.663Z,91.60
2018-09-19T11:14:01.432Z,91.40
2018-09-19T11:16:34.150Z,91.60
2018-09-19T11:19:06.626Z,91.40
2018-09-19T11:21:39.046Z,91.30
2018-09-19T11:24:12.767Z,91.40
2018-09-19T11:26:45.430Z,91.50
2018-09-19T11:29:17.889Z,91.10
2018-09-19T11:31:50.327Z,91.00
2018-09-19T11:34:22.762Z,91.20
2018-09-19T11:36:55.202Z,90.90
2018-09-19T11:39:27.940Z,90.90
2018-09-19T11:42:00.389Z,90.90
2018-09-19T11:44:32.738Z,90.70
2018-09-19T11:47:05.555Z,90.60
2018-09-19T11:49:39.281Z,90.30
2018-09-19T11:52:11.806Z,90.30
2018-09-19T11:54:44.290Z,90.00
2018-09-19T11:57:17.160Z,90.00
2018-09-19T11:59:49.574Z,90.00
2018-09-19T12:02:21.999Z,89.70
2018-09-19T12:04:54.368Z,89.60
2018-09-19T12:07:28.841Z,89.60
2018-09-19T12:10:01.309Z,90.00
2018-09-19T12:12:33.889Z,89.60
2018-09-19T12:15:06.324Z,89.40
2018-09-19T12:17:38.725Z,89.00
2018-09-19T12:20:11.548Z,89.40
2018-09-19T12:22:44.589Z,88.80
2018-09-19T12:25:26.026Z,88.70
2018-09-19T12:27:58.592Z,88.40
2018-09-19T12:30:31.518Z,88.60
2018-09-19T12:38:08.834Z,88.70
2018-09-19T12:40:41.472Z,88.20
2018-09-19T12:43:14.091Z,87.20
2018-09-19T12:45:49.982Z,88.20
2018-09-19T12:51:00.780Z,86.40
2018-09-19T12:53:34.350Z,87.40
2018-09-19T12:56:06.965Z,87.80
2018-09-19T12:58:39.629Z,87.00
2018-09-19T13:01:12.172Z,87.40
2018-09-19T13:03:44.738Z,87.20
2018-09-19T13:06:17.192Z,86.50
2018-09-19T13:08:49.597Z,86.40
2018-09-19T13:11:22.029Z,86.70
2018-09-19T13:13:54.518Z,87.70
2018-09-19T13:16:26.998Z,85.90
2018-09-19T13:21:32.068Z,93.20
2018-09-19T13:24:04.513Z,83.20
2018-09-19T13:26:36.984Z,82.70
2018-09-19T13:29:09.545Z,82.90
2018-09-19T13:31:42.046Z,83.00
2018-09-19T13:34:14.634Z,83.40
2018-09-19T13:36:48.038Z,81.90
2018-09-19T13:39:20.449Z,81.90
2018-09-19T13:41:53.027Z,80.90
2018-09-19T13:44:25.497Z,80.70
2018-09-19T13:46:57.954Z,80.20
2018-09-19T13:49:41.474Z,80.40
2018-09-19T13:52:13.927Z,80.30
2018-09-19T13:54:46.375Z,81.00
2018-09-19T13:57:19.230Z,80.50
2018-09-19T13:59:51.770Z,80.90
2018-09-19T14:02:24.777Z,80.60
2018-09-19T14:04:58.463Z,81.00
2018-09-19T14:07:30.967Z,81.90
2018-09-19T14:10:03.453Z,81.40
2018-09-19T14:12:36.039Z,81.20
2018-09-19T14:15:10.880Z,81.20
2018-09-19T14:17:43.626Z,81.90
2018-09-19T14:20:16.113Z,81.40
2018-09-19T14:22:48.868Z,81.20
2018-09-19T14:25:21.312Z,80.20
2018-09-19T14:27:54.128Z,80.10
2018-09-19T14:30:26.801Z,80.00
2018-09-19T14:33:00.019Z,80.00
2018-09-19T14:35:33.028Z,79.70
2018-09-19T14:38:05.548Z,80.00
2018-09-19T14:40:37.939Z,79.40
2018-09-19T14:43:10.476Z,78.70
2018-09-19T14:45:42.894Z,79.20
2018-09-19T14:48:15.330Z,78.50
2018-09-19T14:50:47.746Z,79.50
2018-09-19T14:53:20.362Z,78.40
2018-09-19T14:55:52.900Z,78.90
2018-09-19T14:58:26.966Z,78.60
2018-09-19T15:00:59.508Z,78.80
2018-09-19T15:03:31.940Z,77.90
2018-09-19T15:06:04.421Z,78.00
2018-09-19T15:08:36.833Z,78.70
2018-09-19T15:11:09.246Z,78.00
2018-09-19T15:13:41.736Z,77.70
2018-09-19T15:16:14.326Z,77.50
2018-09-19T15:18:47.097Z,78.50
2018-09-19T15:21:19.683Z,78.20
2018-09-19T15:23:52.198Z,77.80
2018-09-19T15:26:25.106Z,77.50
2018-09-19T15:28:58.364Z,77.60
2018-09-19T15:31:31.822Z,77.70
2018-09-19T15:34:04.293Z,77.90
2018-09-19T15:36:36.679Z,78.30
2018-09-19T15:39:09.605Z,78.20
2018-09-19T15:41:41.983Z,78.70
2018-09-19T15:44:14.774Z,78.70
2018-09-19T15:46:47.246Z,78.90
2018-09-19T15:49:19.709Z,79.30
2018-09-19T15:51:52.194Z,79.60
2018-09-19T15:54:24.668Z,80.00
2018-09-19T15:56:57.148Z,79.50
2018-09-19T15:59:30.967Z,79.90
2018-09-19T16:02:03.501Z,80.50
2018-09-19T16:04:36.948Z,81.10
2018-09-19T16:07:09.424Z,81.90
2018-09-19T16:09:41.972Z,81.90
2018-09-19T16:12:14.652Z,82.10
2018-09-19T16:14:47.199Z,82.50
2018-09-19T16:19:52.159Z,82.60
2018-09-19T16:22:24.802Z,83.60
2018-09-19T16:24:57.269Z,85.50
2018-09-19T16:27:29.720Z,85.50
2018-09-19T16:30:02.115Z,86.10
2018-09-19T16:32:34.522Z,86.10
2018-09-19T16:35:07.677Z,86.00
2018-09-19T16:37:40.998Z,85.80
2018-09-19T16:40:15.807Z,86.30
2018-09-19T16:42:48.957Z,86.90
2018-09-19T16:45:22.067Z,87.00
2018-09-19T16:47:55.601Z,87.30
2018-09-19T16:50:28.609Z,87.70
2018-09-19T16:53:02.773Z,87.70
2018-09-19T16:55:35.772Z,87.90
2018-09-19T17:00:40.711Z,87.60
2018-09-19T17:03:13.728Z,88.40
2018-09-19T17:05:46.136Z,88.00
2018-09-19T17:08:18.758Z,88.20
2018-09-19T17:10:51.119Z,88.40
2018-09-19T17:13:23.617Z,89.40
2018-09-19T17:15:56.134Z,88.60
2018-09-19T17:18:29.346Z,88.50
2018-09-19T17:21:03.303Z,88.60
2018-09-19T17:23:35.940Z,89.30
2018-09-19T17:26:08.371Z,89.30
2018-09-19T17:28:42.139Z,90.10
2018-09-19T17:31:14.536Z,90.00
2018-09-19T17:33:47.138Z,90.10
2018-09-19T17:36:19.530Z,90.30
2018-09-19T17:38:57.358Z,90.40
2018-09-19T17:41:29.877Z,90.50
2018-09-19T17:44:02.360Z,90.60
2018-09-19T17:46:34.823Z,90.70
2018-09-19T17:49:07.643Z,90.80
2018-09-19T17:51:40.315Z,90.80
2018-09-19T17:54:12.680Z,91.00
2018-09-19T17:56:45.354Z,90.80
2018-09-19T17:59:17.750Z,90.90
2018-09-19T18:01:50.798Z,91.00
2018-09-19T18:04:23.229Z,91.00
2018-09-19T18:06:55.644Z,91.00
2018-09-19T18:09:28.048Z,91.20
2018-09-19T18:12:00.514Z,91.10
2018-09-19T18:14:32.900Z,91.30
2018-09-19T18:17:05.372Z,91.50
2018-09-19T18:19:38.142Z,91.50
2018-09-19T18:22:11.301Z,91.50
2018-09-19T18:29:51.651Z,99.90
2018-09-19T18:32:24.003Z,96.50
2018-09-19T18:34:56.406Z,97.00
2018-09-19T18:37:28.793Z,92.00
2018-09-19T18:40:01.397Z,92.10
2018-09-19T18:42:33.938Z,92.70
2018-09-19T18:45:06.353Z,93.10
2018-09-19T18:47:38.726Z,93.30
2018-09-19T18:50:11.167Z,94.90
2018-09-19T18:52:43.529Z,96.10
2018-09-19T18:55:16.248Z,97.10
2018-09-19T18:57:48.616Z,99.90
2018-09-19T19:00:21.050Z,96.80
2018-09-19T19:02:53.521Z,96.30
2018-09-19T19:05:25.958Z,96.20
2018-09-19T19:07:58.417Z,95.80
2018-09-19T19:10:30.850Z,98.90
2018-09-19T19:13:03.248Z,92.60
2018-09-19T19:15:35.673Z,93.30
2018-09-19T19:18:08.044Z,95.40
2018-09-19T19:23:13.181Z,92.00
2018-09-19T19:25:45.684Z,92.50
2018-09-19T19:28:18.065Z,92.50
2018-09-19T19:30:50.619Z,92.50
2018-09-19T19:33:23.013Z,92.40
2018-09-19T19:35:55.447Z,92.60
2018-09-19T19:38:27.918Z,92.40
2018-09-19T19:41:00.676Z,92.50
2018-09-19T19:43:34.000Z,92.50
2018-09-19T19:46:06.418Z,92.70
2018-09-19T19:48:38.893Z,92.50
2018-09-19T19:51:11.341Z,92.40
2018-09-19T19:53:43.778Z,92.70
2018-09-19T19:56:16.257Z,92.70
2018-09-19T19:58:48.713Z,92.60
2018-09-19T20:01:21.134Z,92.80
2018-09-19T20:03:54.274Z,92.80
2018-09-19T20:06:26.695Z,93.10
2018-09-19T20:08:59.200Z,92.60
2018-09-19T20:11:31.630Z,92.60
2018-09-19T20:14:04.447Z,92.50
2018-09-19T20:16:36.885Z,92.80
2018-09-19T20:19:09.520Z,92.40
2018-09-19T20:21:41.948Z,92.60
2018-09-19T20:24:14.439Z,92.70
2018-09-19T20:26:46.865Z,92.40
2018-09-19T20:29:19.401Z,92.40
2018-09-19T20:31:51.883Z,92.30
2018-09-19T20:34:24.340Z,92.40
2018-09-19T20:36:57.229Z,92.30
2018-09-19T20:39:29.776Z,92.90
2018-09-19T20:42:02.137Z,92.70
2018-09-19T20:44:34.748Z,92.60
2018-09-19T20:47:07.240Z,92.70
2018-09-19T20:49:39.944Z,92.90
2018-09-19T20:52:12.603Z,92.90
2018-09-19T20:54:45.256Z,93.00
2018-09-19T20:57:17.705Z,93.10
2018-09-19T20:59:50.088Z,92.90
2018-09-19T21:02:22.491Z,93.30
2018-09-19T21:04:55.001Z,93.30
2018-09-19T21:07:27.337Z,93.20
2018-09-19T21:09:59.755Z,93.20
2018-09-19T21:12:32.109Z,93.50
2018-09-19T21:15:04.550Z,93.50
2018-09-19T21:17:36.965Z,93.90
2018-09-19T21:20:09.389Z,93.80
2018-09-19T21:22:41.855Z,93.80
2018-09-19T21:25:14.622Z,93.90
2018-09-19T21:27:47.039Z,93.90
2018-09-19T21:30:20.022Z,94.00
2018-09-19T21:32:52.841Z,94.20
2018-09-19T21:35:25.530Z,96.20
2018-09-19T21:37:58.680Z,98.20
2018-09-19T21:40:31.704Z,94.40
2018-09-19T21:43:04.519Z,94.50
2018-09-19T21:45:37.207Z,94.60
2018-09-19T21:48:09.590Z,94.80
2018-09-19T21:50:43.456Z,95.00
2018-09-19T21:53:16.355Z,98.70
2018-09-19T21:58:21.501Z,94.80
2018-09-19T22:01:00.173Z,95.10
2018-09-19T22:03:32.931Z,95.10
2018-09-19T22:06:05.920Z,94.80
2018-09-19T22:08:38.358Z,95.10
2018-09-19T22:11:11.410Z,95.20
2018-09-19T22:13:43.888Z,96.70
2018-09-19T22:16:16.683Z,95.40
2018-09-19T22:18:49.246Z,95.40
2018-09-19T22:21:22.861Z,95.50
2018-09-19T22:23:55.659Z,95.60
2018-09-19T22:26:28.510Z,95.50
2018-09-19T22:29:01.203Z,95.60
2018-09-19T22:31:34.281Z,95.80
2018-09-19T22:34:07.226Z,97.10
2018-09-19T22:36:40.253Z,95.60
2018-09-19T22:39:12.895Z,95.40
2018-09-19T22:41:46.056Z,95.50
2018-09-19T22:44:18.588Z,95.50
2018-09-19T22:46:51.713Z,95.60
2018-09-19T22:49:24.520Z,95.90
2018-09-19T22:51:57.528Z,95.80
2018-09-19T22:57:02.995Z,95.50
2018-09-19T22:59:35.824Z,95.70
2018-09-19T23:02:08.188Z,95.80
2018-09-19T23:04:40.851Z,95.90
2018-09-19T23:07:13.294Z,95.90
2018-09-19T23:09:46.200Z,95.80
2018-09-19T23:12:19.352Z,95.80
2018-09-19T23:14:52.299Z,95.70
2018-09-19T23:17:25.229Z,95.80
2018-09-19T23:19:57.724Z,95.70
2018-09-19T23:22:30.147Z,95.80
2018-09-19T23:25:02.644Z,95.70
2018-09-19T23:27:35.134Z,95.90
2018-09-19T23:30:07.526Z,95.80
2018-09-19T23:32:39.917Z,95.70
2018-09-19T23:35:12.497Z,95.60
2018-09-19T23:37:44.986Z,95.50
2018-09-19T23:40:17.436Z,95.70
2018-09-19T23:42:49.913Z,95.70
2018-09-19T23:45:22.312Z,95.40
2018-09-19T23:47:54.806Z,95.40
2018-09-19T23:50:27.227Z,95.50
2018-09-19T23:52:59.650Z,95.50
2018-09-19T23:55:32.093Z,95.40
2018-09-19T23:58:04.730Z,95.60
